Time;durP1;ratioP1;P1;durP2;ratioP2;P2;SDS_P1;SDS_P2;PMS_P1;PMS_P2;Temp;Humidity;BMP_temperature;BMP_pressure;BME280_temperature;BME280_humidity;BME280_pressure;Samples;Min_cycle;Max_cycle;Signal;HPM_P1;HPM_P2
2022/08/16 00:01:07;;;;;;;13.85;10.85;;;19.20;93.20;;;;;;4864663;29;20037;-81
2022/08/16 00:03:33;;;;;;;13.30;10.90;;;19.20;93.30;;;;;;4857584;29;20063;-81
2022/08/16 00:05:58;;;;;;;12.45;10.57;;;19.20;93.30;;;;;;4846735;29;20086;-81
2022/08/16 00:08:24;;;;;;;13.50;11.80;;;19.10;93.30;;;;;;4869859;29;20044;-83
2022/08/16 00:10:50;;;;;;;12.63;10.50;;;19.10;93.20;;;;;;4861640;29;20040;-81
2022/08/16 00:13:15;;;;;;;12.45;11.13;;;19.10;93.20;;;;;;4857546;29;20038;-81
2022/08/16 00:15:45;;;;;;;12.95;11.35;;;19.10;93.30;;;;;;4858883;29;20045;-81
2022/08/16 00:18:12;;;;;;;15.80;11.32;;;19.10;93.50;;;;;;4851158;29;20120;-82
2022/08/16 00:20:39;;;;;;;15.85;11.50;;;19.10;93.40;;;;;;4851061;29;20056;-81
2022/08/16 00:23:05;;;;;;;15.98;12.52;;;19.00;93.60;;;;;;4875237;29;20043;-81
2022/08/16 00:25:31;;;;;;;16.38;11.73;;;19.00;93.60;;;;;;4851388;29;20441;-81
2022/08/16 00:27:56;;;;;;;15.57;12.20;;;19.00;93.50;;;;;;4874461;29;20124;-81
2022/08/16 00:30:23;;;;;;;14.93;11.52;;;19.10;93.60;;;;;;4861061;29;20033;-81
2022/08/16 00:32:52;;;;;;;15.82;11.95;;;19.10;93.50;;;;;;4880203;29;20471;-81
2022/08/16 00:35:22;;;;;;;16.35;11.60;;;19.00;93.60;;;;;;4878882;29;20091;-81
2022/08/16 00:37:48;;;;;;;19.77;12.30;;;19.00;93.70;;;;;;4889464;29;20097;-81
2022/08/16 00:40:21;;;;;;;16.35;12.23;;;19.00;93.80;;;;;;4880894;29;20394;-81
2022/08/16 00:42:46;;;;;;;16.02;12.85;;;18.90;94.00;;;;;;4849999;29;20416;-82
2022/08/16 00:45:41;;;;;;;14.07;12.57;;;18.90;94.10;;;;;;4874993;29;20029;-81
2022/08/16 00:48:09;;;;;;;17.05;13.25;;;18.80;94.20;;;;;;4862822;29;20636;-83
2022/08/16 00:50:38;;;;;;;16.00;13.68;;;18.80;94.40;;;;;;4879635;29;20542;-80
2022/08/16 00:53:05;;;;;;;16.23;13.68;;;18.70;94.40;;;;;;4882310;29;20028;-83
2022/08/16 00:55:32;;;;;;;17.58;13.30;;;18.70;94.60;;;;;;4871684;29;20065;-81
2022/08/16 00:57:58;;;;;;;17.92;14.27;;;18.70;94.60;;;;;;4869067;29;20025;-82
2022/08/16 01:00:27;;;;;;;18.98;13.75;;;18.70;94.70;;;;;;4864027;29;20037;-81
2022/08/16 01:02:55;;;;;;;18.58;14.23;;;18.70;94.80;;;;;;4871954;29;20037;-81
2022/08/16 01:05:21;;;;;;;17.70;14.35;;;18.70;94.70;;;;;;4848504;29;20036;-80
2022/08/16 01:07:46;;;;;;;18.38;14.82;;;18.60;94.70;;;;;;4865956;29;20037;-82
2022/08/16 01:10:12;;;;;;;15.98;13.90;;;18.60;94.80;;;;;;4882795;29;20061;-80
2022/08/16 01:12:37;;;;;;;17.33;14.82;;;18.60;94.80;;;;;;4862843;29;20557;-82
2022/08/16 01:15:04;;;;;;;18.77;14.95;;;18.60;95.00;;;;;;4868330;29;20397;-82
2022/08/16 01:17:32;;;;;;;23.00;15.38;;;18.60;95.10;;;;;;4871371;29;20052;-82
2022/08/16 01:20:01;;;;;;;20.38;16.45;;;18.50;95.20;;;;;;4877787;29;20064;-82
2022/08/16 01:22:45;;;;;;;19.00;14.88;;;18.50;95.10;;;;;;4854638;29;20037;-81
2022/08/16 01:25:20;;;;;;;18.25;15.95;;;18.50;95.20;;;;;;4846062;29;20035;-81
2022/08/16 01:27:50;;;;;;;18.45;15.88;;;18.50;95.30;;;;;;4865969;29;20504;-82
2022/08/16 01:30:33;;;;;;;20.20;16.15;;;18.50;95.30;;;;;;4853797;29;20033;-81
2022/08/16 01:33:02;;;;;;;20.75;16.48;;;18.50;95.30;;;;;;4872781;29;20147;-82
2022/08/16 01:35:49;;;;;;;19.88;16.48;;;18.40;95.50;;;;;;4860746;29;20036;-81
2022/08/16 01:38:14;;;;;;;18.95;14.98;;;18.40;95.40;;;;;;4846817;29;20147;-81
2022/08/16 01:40:40;;;;;;;20.70;16.98;;;18.40;95.50;;;;;;4877948;29;20116;-81
2022/08/16 01:43:07;;;;;;;21.42;17.73;;;18.40;95.60;;;;;;4864249;29;20447;-81
2022/08/16 01:45:32;;;;;;;22.92;17.95;;;18.30;95.60;;;;;;4858397;29;20115;-81
2022/08/16 01:47:58;;;;;;;20.33;17.25;;;18.30;95.60;;;;;;4873946;29;20123;-82
2022/08/16 01:50:23;;;;;;;24.42;18.73;;;18.30;95.70;;;;;;4862568;29;20032;-81
2022/08/16 01:52:49;;;;;;;22.95;18.02;;;18.30;95.80;;;;;;4853103;29;20037;-82
2022/08/16 01:55:20;;;;;;;21.83;18.52;;;18.30;95.70;;;;;;4869428;29;20537;-81
2022/08/16 01:57:46;;;;;;;25.50;17.85;;;18.30;95.80;;;;;;4852110;29;20025;-81
2022/08/16 02:00:12;;;;;;;21.80;17.73;;;18.30;95.90;;;;;;4851024;29;20077;-81
2022/08/16 02:02:38;;;;;;;27.77;18.73;;;18.30;95.90;;;;;;4854912;29;20033;-80
2022/08/16 02:05:04;;;;;;;24.15;18.88;;;18.30;95.90;;;;;;4861451;29;20055;-81
2022/08/16 02:07:31;;;;;;;23.67;19.45;;;18.40;95.80;;;;;;4869281;29;20091;-81
2022/08/16 02:09:57;;;;;;;21.35;18.13;;;18.40;95.80;;;;;;4881507;29;20363;-82
2022/08/16 02:12:23;;;;;;;22.98;18.42;;;18.40;95.80;;;;;;4877247;29;20481;-81
2022/08/16 02:14:49;;;;;;;24.00;18.67;;;18.40;95.80;;;;;;4845306;29;20034;-81
2022/08/16 02:17:15;;;;;;;25.02;19.13;;;18.30;95.80;;;;;;4851260;29;20482;-80
2022/08/16 02:19:43;;;;;;;22.35;19.15;;;18.30;95.90;;;;;;4844934;29;20835;-81
2022/08/16 02:22:12;;;;;;;24.02;18.67;;;18.30;95.80;;;;;;4867866;29;20158;-80
2022/08/16 02:24:39;;;;;;;21.23;18.70;;;18.30;95.90;;;;;;4848194;29;20493;-80
2022/08/16 02:27:05;;;;;;;20.60;17.70;;;18.30;95.90;;;;;;4845667;29;20045;-81
2022/08/16 02:29:30;;;;;;;22.63;18.88;;;18.20;95.90;;;;;;4862120;29;20104;-81
2022/08/16 02:31:56;;;;;;;23.52;18.63;;;18.30;96.00;;;;;;4877531;29;20038;-81
2022/08/16 02:34:21;;;;;;;26.00;19.27;;;18.20;96.00;;;;;;4843103;29;20060;-81
2022/08/16 02:36:47;;;;;;;21.80;19.20;;;18.20;96.10;;;;;;4861634;29;20034;-80
2022/08/16 02:39:14;;;;;;;26.77;19.40;;;18.20;96.10;;;;;;4877104;29;20040;-80
2022/08/16 02:41:41;;;;;;;24.85;20.15;;;18.20;96.20;;;;;;4871348;29;20389;-81
2022/08/16 02:44:10;;;;;;;27.73;21.67;;;18.20;96.30;;;;;;4858474;29;20068;-81
2022/08/16 02:46:36;;;;;;;27.20;21.95;;;18.20;96.30;;;;;;4871726;29;20052;-81
2022/08/16 02:49:03;;;;;;;27.13;21.60;;;18.20;96.20;;;;;;4873119;29;20037;-81
2022/08/16 02:51:29;;;;;;;26.35;21.05;;;18.20;96.20;;;;;;4871207;29;20030;-81
2022/08/16 02:53:54;;;;;;;27.30;21.80;;;18.20;96.10;;;;;;4873038;29;20455;-83
2022/08/16 02:56:20;;;;;;;26.05;21.83;;;18.20;96.20;;;;;;4878697;29;20127;-80
2022/08/16 02:58:48;;;;;;;25.73;21.42;;;18.10;96.20;;;;;;4859250;29;20025;-81
2022/08/16 03:01:17;;;;;;;26.10;20.08;;;18.10;96.30;;;;;;4865785;29;20036;-81
2022/08/16 03:03:43;;;;;;;26.38;21.98;;;18.10;96.30;;;;;;4869442;29;20040;-82
2022/08/16 03:06:10;;;;;;;26.92;21.67;;;18.10;96.20;;;;;;4856359;29;20465;-81
2022/08/16 03:08:36;;;;;;;27.10;21.08;;;18.10;96.40;;;;;;4856036;29;20025;-81
2022/08/16 03:11:02;;;;;;;26.60;21.98;;;18.10;96.40;;;;;;4861255;29;20509;-83
2022/08/16 03:13:27;;;;;;;27.05;22.02;;;18.10;96.40;;;;;;4859445;29;20044;-81
2022/08/16 03:15:53;;;;;;;29.25;22.50;;;18.10;96.40;;;;;;4871523;29;20117;-81
2022/08/16 03:18:18;;;;;;;28.42;22.85;;;18.10;96.40;;;;;;4868741;29;20033;-81
2022/08/16 03:20:44;;;;;;;28.52;23.88;;;18.10;96.50;;;;;;4865720;29;20326;-81
2022/08/16 03:23:09;;;;;;;29.45;23.48;;;18.10;96.50;;;;;;4855852;29;20438;-82
2022/08/16 03:25:36;;;;;;;30.30;23.73;;;18.10;96.50;;;;;;4852804;29;20051;-81
2022/08/16 03:28:03;;;;;;;28.13;22.05;;;18.00;96.50;;;;;;4857955;29;20056;-81
2022/08/16 03:30:30;;;;;;;30.60;23.00;;;18.10;96.60;;;;;;4863903;29;20043;-80
2022/08/16 03:32:56;;;;;;;29.80;22.58;;;18.00;96.60;;;;;;4862035;29;20037;-81
2022/08/16 03:35:25;;;;;;;32.75;23.50;;;18.00;96.70;;;;;;4867612;29;20103;-81
2022/08/16 03:37:57;;;;;;;29.38;24.80;;;18.00;96.70;;;;;;4852075;29;20051;-81
2022/08/16 03:40:24;;;;;;;30.60;24.75;;;18.00;96.70;;;;;;4890346;29;20029;-80
2022/08/16 03:42:49;;;;;;;30.17;24.00;;;18.00;96.80;;;;;;4885771;29;20025;-80
2022/08/16 03:45:15;;;;;;;31.95;24.83;;;18.00;96.80;;;;;;4848932;29;20044;-81
2022/08/16 03:47:41;;;;;;;30.95;24.85;;;18.00;96.90;;;;;;4856928;29;20081;-80
2022/08/16 03:50:08;;;;;;;34.50;26.38;;;18.00;96.90;;;;;;4859418;29;20473;-81
2022/08/16 03:52:35;;;;;;;34.25;26.05;;;18.00;96.90;;;;;;4879115;29;20029;-82
2022/08/16 03:55:03;;;;;;;33.47;26.95;;;17.90;97.00;;;;;;4866985;29;20042;-82
2022/08/16 03:57:29;;;;;;;36.63;27.95;;;18.00;97.10;;;;;;4848272;29;20033;-81
2022/08/16 03:59:55;;;;;;;37.10;26.92;;;17.90;97.00;;;;;;4851749;29;20037;-82
2022/08/16 04:02:21;;;;;;;42.78;29.30;;;17.90;97.00;;;;;;4860323;29;20386;-81
2022/08/16 04:04:47;;;;;;;35.72;29.02;;;17.90;97.10;;;;;;4853471;29;20457;-81
2022/08/16 04:07:14;;;;;;;36.95;28.15;;;17.90;97.10;;;;;;4858519;29;20108;-81
2022/08/16 04:09:40;;;;;;;37.17;29.08;;;17.90;97.10;;;;;;4861088;29;20033;-82
2022/08/16 04:12:06;;;;;;;40.90;28.67;;;17.90;97.10;;;;;;4852191;29;20042;-81
2022/08/16 04:14:32;;;;;;;41.42;29.38;;;17.90;97.20;;;;;;4855121;29;20041;-80
2022/08/16 04:16:58;;;;;;;39.40;29.48;;;17.80;97.20;;;;;;4880216;29;20044;-82
2022/08/16 04:19:25;;;;;;;41.15;29.75;;;17.80;97.30;;;;;;4853469;29;20378;-79
2022/08/16 04:21:51;;;;;;;39.15;30.33;;;17.80;97.30;;;;;;4859032;29;20037;-82
2022/08/16 04:24:16;;;;;;;44.30;30.67;;;17.80;97.30;;;;;;4860982;29;20470;-80
2022/08/16 04:26:42;;;;;;;43.65;31.13;;;17.70;97.30;;;;;;4874053;29;20418;-79
2022/08/16 04:29:07;;;;;;;47.20;32.05;;;17.70;97.30;;;;;;4852050;29;20033;-79
2022/08/16 04:31:32;;;;;;;41.15;30.85;;;17.70;97.40;;;;;;4875653;29;20033;-79
2022/08/16 04:33:59;;;;;;;43.78;32.63;;;17.70;97.40;;;;;;4859312;29;20033;-80
2022/08/16 04:36:27;;;;;;;46.08;33.03;;;17.70;97.50;;;;;;4877451;29;20686;-79
2022/08/16 04:38:53;;;;;;;46.80;32.20;;;17.70;97.50;;;;;;4874114;29;20158;-79
2022/08/16 04:41:20;;;;;;;46.83;33.03;;;17.60;97.50;;;;;;4868908;29;20036;-79
2022/08/16 04:43:46;;;;;;;46.55;33.08;;;17.60;97.50;;;;;;4842678;29;20159;-79
2022/08/16 04:46:13;;;;;;;46.00;32.38;;;17.70;97.60;;;;;;4874397;29;20441;-79
2022/08/16 04:48:40;;;;;;;44.08;33.15;;;17.70;97.50;;;;;;4866281;29;20028;-80
2022/08/16 04:51:06;;;;;;;47.25;32.97;;;17.70;97.50;;;;;;4853238;29;20036;-79
2022/08/16 04:53:32;;;;;;;48.75;33.50;;;17.80;97.50;;;;;;4874647;29;20029;-79
2022/08/16 04:55:57;;;;;;;44.28;32.42;;;17.80;97.50;;;;;;4854995;29;20469;-79
2022/08/16 04:58:23;;;;;;;44.63;33.17;;;17.80;97.50;;;;;;4848811;29;20716;-80
2022/08/16 05:00:49;;;;;;;43.03;32.63;;;17.90;97.50;;;;;;4857525;29;20025;-83
2022/08/16 05:03:15;;;;;;;45.90;33.65;;;18.00;97.40;;;;;;4855101;29;20029;-80
2022/08/16 05:05:41;;;;;;;46.80;32.13;;;18.00;97.40;;;;;;4854752;29;20029;-79
2022/08/16 05:08:08;;;;;;;41.38;30.83;;;18.00;97.20;;;;;;4865205;29;20396;-80
2022/08/16 05:10:33;;;;;;;41.08;31.02;;;18.00;97.10;;;;;;4885826;29;20109;-78
2022/08/16 05:13:00;;;;;;;40.50;29.17;;;18.00;96.90;;;;;;4847989;29;20490;-79
2022/08/16 05:15:26;;;;;;;36.90;28.38;;;18.00;96.90;;;;;;4866914;29;20365;-80
2022/08/16 05:17:52;;;;;;;36.88;28.08;;;18.10;96.80;;;;;;4874404;29;20112;-79
2022/08/16 05:20:19;;;;;;;38.25;28.60;;;18.20;96.80;;;;;;4851787;29;20032;-83
2022/08/16 05:22:45;;;;;;;38.30;27.80;;;18.30;96.70;;;;;;4851508;29;20129;-78
2022/08/16 05:25:11;;;;;;;35.90;26.33;;;18.30;96.50;;;;;;4872592;29;20362;-79
2022/08/16 05:27:38;;;;;;;37.08;26.77;;;18.30;96.40;;;;;;4866212;29;20173;-79
2022/08/16 05:30:06;;;;;;;39.30;26.65;;;18.40;96.40;;;;;;4861228;29;21328;-81
2022/08/16 05:32:33;;;;;;;32.28;26.15;;;18.50;96.20;;;;;;4868812;29;20037;-78
2022/08/16 05:34:58;;;;;;;35.00;25.40;;;18.40;96.10;;;;;;4865743;29;20029;-81
2022/08/16 05:37:24;;;;;;;29.65;24.38;;;18.50;96.00;;;;;;4846358;29;20032;-81
2022/08/16 05:39:50;;;;;;;34.47;24.48;;;18.50;96.00;;;;;;4844582;29;20038;-79
2022/08/16 05:42:16;;;;;;;29.92;24.00;;;18.50;95.90;;;;;;4869550;29;20068;-79
2022/08/16 05:44:41;;;;;;;33.13;24.30;;;18.60;95.70;;;;;;4869338;29;20064;-80
2022/08/16 05:47:07;;;;;;;30.02;23.20;;;18.60;95.50;;;;;;4865707;29;20041;-83
2022/08/16 05:49:32;;;;;;;27.48;22.65;;;18.70;95.50;;;;;;4849948;29;20029;-79
2022/08/16 05:51:58;;;;;;;27.77;21.95;;;18.70;95.20;;;;;;4872517;29;20442;-80
2022/08/16 05:54:26;;;;;;;26.58;21.98;;;18.80;95.10;;;;;;4852100;29;20052;-86
2022/08/16 05:56:53;;;;;;;29.00;21.58;;;18.80;95.00;;;;;;4864711;29;20132;-80
2022/08/16 05:59:19;;;;;;;25.95;21.50;;;18.90;94.90;;;;;;4870294;29;20109;-80
2022/08/16 06:01:45;;;;;;;28.17;21.90;;;19.00;94.80;;;;;;4860679;29;20097;-80
2022/08/16 06:04:12;;;;;;;25.67;21.77;;;19.00;94.50;;;;;;4877493;29;20033;-80
2022/08/16 06:06:39;;;;;;;25.50;20.25;;;19.20;94.30;;;;;;4860076;29;20113;-80
2022/08/16 06:09:04;;;;;;;23.50;20.27;;;19.30;93.90;;;;;;4852870;29;20411;-80
2022/08/16 06:11:30;;;;;;;25.15;20.50;;;19.40;93.70;;;;;;4864056;29;20040;-80
2022/08/16 06:13:55;;;;;;;27.35;19.48;;;19.50;93.10;;;;;;4856863;29;20067;-81
2022/08/16 06:16:21;;;;;;;24.33;19.50;;;19.60;93.00;;;;;;4873735;29;20064;-82
2022/08/16 06:18:47;;;;;;;25.60;19.45;;;19.80;92.30;;;;;;4851250;29;20060;-81
2022/08/16 06:21:13;;;;;;;24.40;18.50;;;20.00;91.80;;;;;;4848866;29;20036;-79
2022/08/16 06:23:39;;;;;;;23.45;17.10;;;20.00;91.30;;;;;;4853213;29;20029;-78
2022/08/16 06:26:06;;;;;;;21.75;17.58;;;20.00;90.60;;;;;;4872131;29;20466;-79
2022/08/16 06:28:32;;;;;;;20.52;17.05;;;20.00;90.70;;;;;;4864050;29;20033;-79
2022/08/16 06:30:58;;;;;;;19.48;16.60;;;20.10;90.30;;;;;;4853862;29;20108;-80
2022/08/16 06:33:23;;;;;;;19.27;16.75;;;20.20;90.10;;;;;;4861944;29;20041;-80
2022/08/16 06:35:54;;;;;;;19.30;17.08;;;20.30;90.50;;;;;;4847219;29;20037;-80
2022/08/16 06:38:20;;;;;;;19.95;17.13;;;20.40;90.20;;;;;;4855113;29;20037;-80
2022/08/16 06:40:45;;;;;;;19.15;15.93;;;20.40;90.00;;;;;;4859929;29;20081;-81
2022/08/16 06:43:11;;;;;;;20.15;16.65;;;20.50;89.80;;;;;;4860417;29;20033;-82
2022/08/16 06:45:36;;;;;;;20.08;16.30;;;20.50;89.90;;;;;;4869470;29;20044;-81
2022/08/16 06:48:04;;;;;;;23.33;16.70;;;20.70;89.90;;;;;;4857389;29;20493;-82
2022/08/16 06:50:31;;;;;;;19.67;15.63;;;20.80;89.80;;;;;;4852157;29;20120;-81
2022/08/16 06:52:57;;;;;;;18.25;15.48;;;20.90;89.30;;;;;;4870618;29;20052;-83
2022/08/16 06:55:23;;;;;;;21.25;15.48;;;21.10;88.20;;;;;;4866502;29;20469;-84
2022/08/16 06:57:50;;;;;;;19.02;15.75;;;21.30;88.40;;;;;;4852166;29;20446;-82
2022/08/16 07:00:16;;;;;;;16.23;14.50;;;21.40;87.90;;;;;;4846283;29;20052;-82
2022/08/16 07:02:43;;;;;;;17.02;15.13;;;21.50;86.80;;;;;;4847533;29;20033;-82
2022/08/16 07:05:11;;;;;;;20.67;15.07;;;21.80;86.60;;;;;;4861438;29;20064;-81
2022/08/16 07:07:38;;;;;;;16.15;12.75;;;22.00;86.10;;;;;;4872230;29;20033;-82
2022/08/16 07:10:07;;;;;;;18.80;13.38;;;22.30;87.00;;;;;;4852262;29;20035;-81
2022/08/16 07:12:33;;;;;;;17.10;12.43;;;22.50;85.70;;;;;;4867414;29;20426;-83
2022/08/16 07:14:59;;;;;;;14.95;11.45;;;22.70;84.40;;;;;;4849172;29;20040;-85
2022/08/16 07:17:26;;;;;;;18.95;12.13;;;22.70;82.80;;;;;;4857073;29;20025;-81
2022/08/16 07:19:52;;;;;;;14.82;11.15;;;23.00;82.40;;;;;;4848535;29;20029;-81
2022/08/16 07:22:19;;;;;;;13.93;9.48;;;23.30;83.00;;;;;;4854746;29;20497;-81
2022/08/16 07:24:45;;;;;;;12.35;8.48;;;23.30;81.40;;;;;;4857459;29;20401;-81
2022/08/16 07:27:11;;;;;;;11.80;8.40;;;23.40;79.50;;;;;;4868691;29;20180;-81
2022/08/16 07:29:37;;;;;;;9.20;7.57;;;23.40;80.10;;;;;;4851862;29;20029;-81
2022/08/16 07:32:04;;;;;;;11.52;7.65;;;23.50;79.60;;;;;;4859559;29;20033;-83
2022/08/16 07:34:30;;;;;;;10.88;8.77;;;23.70;80.30;;;;;;4885954;29;20036;-82
2022/08/16 07:36:58;;;;;;;10.20;7.55;;;23.60;79.00;;;;;;4877582;29;20032;-82
2022/08/16 07:39:23;;;;;;;11.38;7.45;;;23.70;79.70;;;;;;4856923;29;20414;-81
2022/08/16 07:41:49;;;;;;;9.85;7.97;;;23.70;79.50;;;;;;4855952;29;20025;-82
2022/08/16 07:44:14;;;;;;;9.93;7.25;;;23.60;79.30;;;;;;4862880;29;20040;-80
2022/08/16 07:46:40;;;;;;;10.18;7.65;;;23.70;79.60;;;;;;4884337;29;20412;-81
2022/08/16 07:49:05;;;;;;;8.52;7.25;;;23.70;79.10;;;;;;4875667;29;20040;-81
2022/08/16 07:51:33;;;;;;;12.77;7.45;;;23.70;78.70;;;;;;4884505;29;20112;-81
2022/08/16 07:54:01;;;;;;;9.90;7.32;;;23.70;77.00;;;;;;4850777;29;20052;-82
2022/08/16 07:56:30;;;;;;;8.13;6.80;;;23.80;77.30;;;;;;4852146;29;20033;-82
2022/08/16 07:58:56;;;;;;;10.82;7.82;;;24.20;76.50;;;;;;4874194;29;20074;-83
2022/08/16 08:01:22;;;;;;;10.68;7.57;;;24.40;76.70;;;;;;4847226;29;20081;-81
2022/08/16 08:03:48;;;;;;;9.95;7.50;;;24.60;75.80;;;;;;4870750;29;20040;-81
2022/08/16 08:06:16;;;;;;;9.75;7.45;;;24.20;75.60;;;;;;4871081;29;20037;-83
2022/08/16 08:08:42;;;;;;;13.15;7.50;;;24.00;76.10;;;;;;4866431;29;20034;-81
2022/08/16 08:11:08;;;;;;;8.95;6.60;;;23.80;76.60;;;;;;4863726;29;20082;-82
2022/08/16 08:13:34;;;;;;;10.98;6.95;;;23.90;77.80;;;;;;4861192;29;20044;-81
2022/08/16 08:15:59;;;;;;;10.57;7.53;;;23.80;76.90;;;;;;4854628;29;20438;-81
2022/08/16 08:18:25;;;;;;;11.38;6.63;;;23.90;77.00;;;;;;4871750;29;20030;-81
2022/08/16 08:20:51;;;;;;;11.95;6.88;;;24.20;77.90;;;;;;4863414;29;20030;-81
2022/08/16 08:23:17;;;;;;;9.07;6.82;;;24.20;74.70;;;;;;4871293;29;20041;-81
2022/08/16 08:25:44;;;;;;;10.75;7.60;;;24.40;75.20;;;;;;4862617;29;20072;-81
2022/08/16 08:28:09;;;;;;;9.95;6.82;;;24.60;74.30;;;;;;4866223;29;20039;-85
2022/08/16 08:30:35;;;;;;;9.60;6.80;;;24.70;74.30;;;;;;4877817;29;20026;-83
2022/08/16 08:33:01;;;;;;;10.38;6.00;;;25.00;72.50;;;;;;4852437;29;20037;-83
2022/08/16 08:35:27;;;;;;;7.60;6.00;;;25.10;71.00;;;;;;4853276;29;20053;-82
2022/08/16 08:37:53;;;;;;;7.88;6.47;;;25.20;70.90;;;;;;4854940;29;20033;-82
2022/08/16 08:40:20;;;;;;;9.27;6.45;;;25.50;72.40;;;;;;4857662;29;20033;-84
2022/08/16 08:42:46;;;;;;;8.73;6.32;;;25.60;71.30;;;;;;4874279;29;20084;-81
2022/08/16 08:45:12;;;;;;;10.27;6.30;;;25.70;71.90;;;;;;4876839;29;20093;-81
2022/08/16 08:47:38;;;;;;;8.50;5.97;;;25.80;70.60;;;;;;4865922;29;20026;-82
2022/08/16 08:50:05;;;;;;;10.98;5.82;;;25.80;69.90;;;;;;4878851;29;20496;-82
2022/08/16 08:52:31;;;;;;;8.88;6.60;;;25.80;69.20;;;;;;4879667;29;20044;-82
2022/08/16 08:54:57;;;;;;;7.93;5.70;;;25.80;68.90;;;;;;4874670;29;20044;-82
2022/08/16 08:57:23;;;;;;;8.98;5.90;;;26.20;69.50;;;;;;4849368;29;20569;-82
2022/08/16 08:59:49;;;;;;;10.75;6.82;;;26.20;69.40;;;;;;4862864;29;20362;-83
2022/08/16 09:02:15;;;;;;;10.57;5.55;;;26.30;68.30;;;;;;4870156;29;20033;-81
2022/08/16 09:04:43;;;;;;;7.55;5.80;;;26.70;68.90;;;;;;4862478;29;20045;-82
2022/08/16 09:07:09;;;;;;;10.15;6.80;;;26.40;69.30;;;;;;4877761;29;20061;-81
2022/08/16 09:09:35;;;;;;;10.50;6.57;;;26.60;67.00;;;;;;4871808;29;20112;-80
2022/08/16 09:12:01;;;;;;;8.65;6.28;;;26.60;65.80;;;;;;4862956;29;20116;-81
2022/08/16 09:14:27;;;;;;;10.70;7.00;;;26.80;64.80;;;;;;4845201;29;20057;-80
2022/08/16 09:16:52;;;;;;;8.65;6.22;;;26.80;64.70;;;;;;4858667;29;20035;-81
2022/08/16 09:19:18;;;;;;;9.57;6.28;;;27.00;65.00;;;;;;4860330;29;20037;-82
2022/08/16 09:21:44;;;;;;;8.73;6.30;;;27.40;63.50;;;;;;4869264;29;20393;-81
2022/08/16 09:24:09;;;;;;;9.25;6.07;;;27.90;62.60;;;;;;4860667;29;20044;-81
2022/08/16 09:26:35;;;;;;;9.07;5.78;;;27.70;62.00;;;;;;4866413;29;20429;-81
2022/08/16 09:29:00;;;;;;;13.50;5.85;;;27.60;62.90;;;;;;4873186;29;20093;-82
2022/08/16 09:31:26;;;;;;;9.50;5.95;;;27.50;63.50;;;;;;4871632;29;20541;-81
2022/08/16 09:33:51;;;;;;;8.75;5.78;;;27.40;63.30;;;;;;4853903;29;20516;-81
2022/08/16 09:36:18;;;;;;;9.75;5.28;;;26.90;63.70;;;;;;4870783;29;20097;-80
2022/08/16 09:38:44;;;;;;;9.57;5.97;;;26.60;65.60;;;;;;4862274;29;20029;-81
2022/08/16 09:41:10;;;;;;;9.77;6.20;;;26.50;64.60;;;;;;4862065;29;20458;-82
2022/08/16 09:43:37;;;;;;;10.48;6.07;;;26.50;65.30;;;;;;4850043;29;20034;-82
2022/08/16 09:46:06;;;;;;;8.93;5.05;;;26.40;64.40;;;;;;4845084;29;20041;-82
2022/08/16 09:48:32;;;;;;;9.52;5.43;;;26.80;66.20;;;;;;4869114;29;20473;-82
2022/08/16 09:50:58;;;;;;;10.98;5.80;;;27.00;66.90;;;;;;4870456;29;20032;-83
2022/08/16 09:53:25;;;;;;;6.82;5.03;;;26.80;64.00;;;;;;4860887;29;20045;-83
2022/08/16 09:55:53;;;;;;;9.32;5.47;;;26.80;65.40;;;;;;4870420;29;20069;-82
2022/08/16 09:58:24;;;;;;;8.02;5.95;;;26.80;64.10;;;;;;4851196;29;20060;-82
2022/08/16 10:00:50;;;;;;;;;;;27.00;63.30;;;;;;4867757;29;20021;-83
2022/08/16 10:03:17;;;;;;;8.95;5.97;;;27.10;63.30;;;;;;4867523;29;19911;-83
2022/08/16 10:05:43;;;;;;;6.88;5.50;;;27.50;62.10;;;;;;4869969;29;20159;-81
2022/08/16 10:08:08;;;;;;;7.13;5.63;;;28.00;62.10;;;;;;4874684;29;20061;-81
2022/08/16 10:10:35;;;;;;;10.07;6.50;;;28.00;60.60;;;;;;4861131;29;20370;-83
2022/08/16 10:13:13;;;;;;;12.48;6.25;;;28.20;60.50;;;;;;4856120;29;20033;-83
2022/08/16 10:15:46;;;;;;;11.20;5.53;;;28.00;59.50;;;;;;4845248;29;20041;-83
2022/08/16 10:18:13;;;;;;;9.82;5.85;;;28.50;59.30;;;;;;4849411;29;20070;-83
2022/08/16 10:20:44;;;;;;;8.27;6.18;;;28.80;60.60;;;;;;4856756;29;20033;-81
2022/08/16 10:23:14;;;;;;;12.38;6.15;;;28.30;57.80;;;;;;4847453;29;20447;-82
2022/08/16 10:25:42;;;;;;;;;;;28.50;57.40;;;;;;4864695;29;20120;-81
2022/08/16 10:28:09;;;;;;;8.50;4.82;;;29.20;58.90;;;;;;4853639;29;19912;-83
2022/08/16 10:30:36;;;;;;;7.03;4.40;;;29.40;56.80;;;;;;4870539;29;20382;-81
2022/08/16 10:33:01;;;;;;;8.93;4.07;;;29.60;53.50;;;;;;4869476;29;20523;-83
2022/08/16 10:35:27;;;;;;;6.82;4.18;;;29.50;54.10;;;;;;4872168;29;20032;-83
2022/08/16 10:37:53;;;;;;;8.80;4.18;;;29.30;51.60;;;;;;4858600;29;20446;-83
2022/08/16 10:40:19;;;;;;;9.85;4.53;;;30.00;53.60;;;;;;4885337;29;20334;-83
2022/08/16 10:42:45;;;;;;;8.43;4.90;;;29.90;51.30;;;;;;4847225;29;20029;-82
2022/08/16 10:45:11;;;;;;;6.32;4.68;;;29.90;51.00;;;;;;4860152;29;20657;-82
2022/08/16 10:47:37;;;;;;;7.38;5.07;;;29.40;53.10;;;;;;4851091;29;20085;-81
2022/08/16 10:50:05;;;;;;;8.93;5.13;;;29.20;54.30;;;;;;4872062;29;20385;-82
2022/08/16 10:52:32;;;;;;;11.32;5.00;;;28.80;55.10;;;;;;4853488;29;20033;-82
2022/08/16 10:54:59;;;;;;;9.32;5.55;;;28.20;57.30;;;;;;4869135;29;20053;-82
2022/08/16 10:57:26;;;;;;;7.22;5.20;;;28.00;58.00;;;;;;4846614;29;20061;-84
2022/08/16 10:59:52;;;;;;;7.88;5.43;;;27.40;59.30;;;;;;4849802;29;20488;-81
2022/08/16 11:02:18;;;;;;;11.05;6.93;;;27.20;61.50;;;;;;4843922;29;20043;-85
2022/08/16 11:04:44;;;;;;;13.05;7.35;;;26.50;67.70;;;;;;4864258;29;20120;-82
2022/08/16 11:07:10;;;;;;;12.23;7.60;;;26.00;72.60;;;;;;4849070;29;20052;-80
2022/08/16 11:09:38;;;;;;;9.57;6.45;;;25.50;76.50;;;;;;4861659;29;20367;-80
2022/08/16 11:12:05;;;;;;;9.60;6.03;;;25.20;76.50;;;;;;4854538;29;20037;-80
2022/08/16 11:14:31;;;;;;;8.27;5.10;;;25.00;75.00;;;;;;4854295;29;20032;-81
2022/08/16 11:16:58;;;;;;;7.35;5.00;;;25.00;72.30;;;;;;4867102;29;20027;-84
2022/08/16 11:19:24;;;;;;;7.38;4.47;;;25.00;74.60;;;;;;4869913;29;20037;-82
2022/08/16 11:21:49;;;;;;;5.93;3.83;;;25.00;72.50;;;;;;4867261;29;20029;-81
2022/08/16 11:24:15;;;;;;;6.97;3.92;;;25.10;71.00;;;;;;4851237;29;20030;-83
2022/08/16 11:26:41;;;;;;;4.32;3.22;;;25.10;72.40;;;;;;4876998;29;20029;-81
2022/08/16 11:29:08;;;;;;;5.35;3.65;;;25.00;68.40;;;;;;4873896;29;20069;-80
2022/08/16 11:31:34;;;;;;;6.45;4.10;;;25.10;68.60;;;;;;4875673;29;20160;-81
2022/08/16 11:34:00;;;;;;;10.68;4.22;;;25.20;67.30;;;;;;4869381;29;20037;-82
2022/08/16 11:36:25;;;;;;;6.35;3.97;;;25.20;69.00;;;;;;4860206;29;20057;-81
2022/08/16 11:38:51;;;;;;;7.15;4.18;;;25.40;69.50;;;;;;4864504;29;20033;-82
2022/08/16 11:41:17;;;;;;;6.97;4.43;;;25.20;67.40;;;;;;4863354;29;20075;-81
2022/08/16 11:43:43;;;;;;;6.22;3.83;;;25.50;67.80;;;;;;4868634;29;20057;-80
2022/08/16 11:46:11;;;;;;;5.55;3.58;;;25.40;68.60;;;;;;4862770;29;20032;-81
2022/08/16 11:48:37;;;;;;;6.63;4.00;;;25.40;67.30;;;;;;4863978;29;20304;-81
2022/08/16 11:51:03;;;;;;;6.45;3.85;;;25.40;68.30;;;;;;4857168;29;20041;-82
2022/08/16 11:53:31;;;;;;;7.00;3.78;;;25.90;69.80;;;;;;4854741;29;20037;-81
2022/08/16 11:55:57;;;;;;;4.97;3.67;;;26.00;70.00;;;;;;4854875;29;20030;-81
2022/08/16 11:58:24;;;;;;;5.93;4.15;;;26.00;67.50;;;;;;4867388;29;20048;-80
2022/08/16 12:00:51;;;;;;;7.70;3.83;;;26.00;66.30;;;;;;4846845;29;20033;-82
2022/08/16 12:03:17;;;;;;;5.75;3.92;;;26.10;68.70;;;;;;4876975;29;20041;-81
2022/08/16 12:05:45;;;;;;;7.07;4.13;;;26.20;66.00;;;;;;4868796;29;20029;-83
2022/08/16 12:08:11;;;;;;;6.18;3.85;;;26.40;66.50;;;;;;4873161;29;20045;-81
2022/08/16 12:10:39;;;;;;;5.45;3.35;;;26.70;63.20;;;;;;4865447;29;20584;-81
2022/08/16 12:13:06;;;;;;;6.53;3.70;;;27.20;64.20;;;;;;4860830;29;20404;-82
2022/08/16 12:15:32;;;;;;;7.05;3.53;;;27.50;62.60;;;;;;4869517;29;20041;-83
2022/08/16 12:17:58;;;;;;;4.35;3.25;;;27.90;61.80;;;;;;4868421;29;20021;-83
2022/08/16 12:20:28;;;;;;;6.22;4.07;;;28.40;62.10;;;;;;4847426;29;20061;-82
2022/08/16 12:22:54;;;;;;;7.03;4.57;;;28.70;58.20;;;;;;4856621;29;20377;-83
2022/08/16 12:25:27;;;;;;;8.52;5.43;;;28.90;56.70;;;;;;4860836;29;20117;-82
2022/08/16 12:27:54;;;;;;;9.43;4.80;;;28.40;57.40;;;;;;4867697;29;20029;-81
2022/08/16 12:30:27;;;;;;;7.93;4.45;;;28.10;58.10;;;;;;4868748;29;20029;-82
2022/08/16 12:32:53;;;;;;;8.75;4.18;;;28.10;60.30;;;;;;4870422;29;20029;-81